createdAt,value
2023-05-05T00:00:02.290Z,67.37
2023-05-05T00:02:29.193Z,65.92
2023-05-05T00:04:56.229Z,66.53
2023-05-05T00:07:23.054Z,67.58
2023-05-05T00:09:49.948Z,67.14
2023-05-05T00:12:16.945Z,65.78
2023-05-05T00:14:43.794Z,64.65
2023-05-05T00:17:10.808Z,63.87
2023-05-05T00:19:37.788Z,64.76
2023-05-05T00:22:04.670Z,66.03
2023-05-05T00:24:31.456Z,67.13
2023-05-05T00:26:58.297Z,67.70
2023-05-05T00:29:25.341Z,65.88
2023-05-05T00:31:53.022Z,64.35
2023-05-05T00:34:19.936Z,66.71
2023-05-05T00:36:46.867Z,65.64
2023-05-05T00:39:14.484Z,64.39
2023-05-05T00:41:41.625Z,67.26
2023-05-05T00:44:08.463Z,69.50
2023-05-05T00:46:36.139Z,68.31
2023-05-05T00:49:03.271Z,68.05
2023-05-05T00:51:30.302Z,66.65
2023-05-05T00:53:57.566Z,64.98
2023-05-05T00:56:27.513Z,66.36
2023-05-05T00:58:54.489Z,65.56
2023-05-05T01:01:21.358Z,64.93
2023-05-05T01:03:48.366Z,67.98
2023-05-05T01:06:39.731Z,68.58
2023-05-05T01:10:10.971Z,66.81
2023-05-05T01:13:05.781Z,64.90
2023-05-05T01:15:36.326Z,63.82
2023-05-05T01:18:21.455Z,64.06
2023-05-05T01:21:00.710Z,62.89
2023-05-05T01:23:59.216Z,69.24
2023-05-05T01:26:48.228Z,70.65
2023-05-05T01:29:40.740Z,71.39
2023-05-05T01:32:11.990Z,68.02
2023-05-05T01:35:15.525Z,67.78
2023-05-05T01:37:55.814Z,69.58
2023-05-05T01:40:26.999Z,68.68
2023-05-05T01:42:56.452Z,67.16
2023-05-05T01:45:28.911Z,65.08
2023-05-05T01:47:57.631Z,65.51
2023-05-05T01:50:26.128Z,65.40
2023-05-05T01:52:54.597Z,63.90
2023-05-05T01:55:25.673Z,63.90
2023-05-05T01:57:55.058Z,63.37
2023-05-05T02:00:23.094Z,63.66
2023-05-05T02:02:50.836Z,64.73
2023-05-05T02:05:22.075Z,63.11
2023-05-05T02:07:51.485Z,72.14
2023-05-05T02:10:18.650Z,72.05
2023-05-05T02:12:47.789Z,71.65
2023-05-05T02:15:15.756Z,69.43
2023-05-05T02:17:46.759Z,69.57
2023-05-05T02:20:16.319Z,70.89
2023-05-05T02:22:43.445Z,71.29
2023-05-05T02:25:10.601Z,70.52
2023-05-05T02:27:41.874Z,68.74
2023-05-05T02:30:11.346Z,74.05
2023-05-05T02:32:41.632Z,72.86
2023-05-05T02:35:15.846Z,71.96
2023-05-05T02:37:51.122Z,71.47
2023-05-05T02:40:24.715Z,70.97
2023-05-05T02:42:54.638Z,69.17
2023-05-05T02:45:24.232Z,67.77
2023-05-05T02:47:51.084Z,67.21
2023-05-05T02:50:18.263Z,67.28
2023-05-05T02:52:46.069Z,67.80
2023-05-05T02:55:13.675Z,70.17
2023-05-05T02:57:55.399Z,69.22
2023-05-05T03:00:22.241Z,70.24
2023-05-05T03:03:05.723Z,72.55
2023-05-05T03:05:42.824Z,74.66
2023-05-05T03:08:33.418Z,75.68
2023-05-05T03:11:16.948Z,74.03
2023-05-05T03:13:44.996Z,75.75
2023-05-05T03:16:13.379Z,75.41
2023-05-05T03:18:42.565Z,74.75
2023-05-05T03:21:09.755Z,73.48
2023-05-05T03:23:36.855Z,73.65
2023-05-05T03:26:03.842Z,72.57
2023-05-05T03:28:30.766Z,73.12
2023-05-05T03:30:57.751Z,74.78
2023-05-05T03:33:24.598Z,75.87
2023-05-05T03:35:51.487Z,73.59
2023-05-05T03:38:18.298Z,74.20
2023-05-05T03:40:45.179Z,74.17
2023-05-05T03:43:12.396Z,72.96
2023-05-05T03:45:39.324Z,75.10
2023-05-05T03:48:07.055Z,75.33
2023-05-05T03:50:34.045Z,75.83
2023-05-05T03:53:01.085Z,75.44
2023-05-05T03:55:28.079Z,77.18
2023-05-05T03:57:56.556Z,78.92
2023-05-05T04:00:23.602Z,80.39
2023-05-05T04:02:50.612Z,79.69
2023-05-05T04:05:18.449Z,76.23
2023-05-05T04:07:45.273Z,74.56
2023-05-05T04:10:12.459Z,72.18
2023-05-05T04:12:39.430Z,70.39
2023-05-05T04:15:07.090Z,69.75
2023-05-05T04:17:33.988Z,69.24
2023-05-05T04:20:00.953Z,68.66
2023-05-05T04:22:27.758Z,67.82
2023-05-05T04:24:54.748Z,65.41
2023-05-05T04:27:21.566Z,65.52
2023-05-05T04:29:48.469Z,65.26
2023-05-05T04:32:15.998Z,63.94
2023-05-05T04:34:44.096Z,62.55
2023-05-05T04:37:15.562Z,61.70
2023-05-05T04:39:47.073Z,61.44
2023-05-05T04:42:14.011Z,61.40
2023-05-05T04:44:41.021Z,60.35
2023-05-05T04:47:07.933Z,59.37
2023-05-05T04:49:34.894Z,58.94
2023-05-05T04:52:01.787Z,58.41
2023-05-05T04:54:28.685Z,55.77
2023-05-05T04:56:55.894Z,53.68
2023-05-05T04:59:22.740Z,50.94
2023-05-05T05:01:49.586Z,48.97
2023-05-05T05:04:18.810Z,49.29
2023-05-05T05:06:46.215Z,47.87
2023-05-05T05:09:13.302Z,48.61
2023-05-05T05:11:40.124Z,48.58
2023-05-05T05:14:07.064Z,47.11
2023-05-05T05:16:33.971Z,44.78
2023-05-05T05:19:01.752Z,43.01
2023-05-05T05:21:28.903Z,42.48
2023-05-05T05:23:55.791Z,41.98
2023-05-05T05:26:23.394Z,40.45
2023-05-05T05:28:50.220Z,39.07
2023-05-05T05:31:17.100Z,38.39
2023-05-05T05:33:44.065Z,38.83
2023-05-05T05:36:11.156Z,38.39
2023-05-05T05:38:37.942Z,38.07
2023-05-05T05:41:07.902Z,38.40
2023-05-05T05:43:37.084Z,38.10
2023-05-05T05:46:04.480Z,38.13
2023-05-05T05:48:32.335Z,38.82
2023-05-05T05:50:59.158Z,39.54
2023-05-05T05:53:26.070Z,41.23
2023-05-05T05:55:52.968Z,40.59
2023-05-05T05:58:20.102Z,40.50
2023-05-05T06:00:48.503Z,41.36
2023-05-05T06:03:16.180Z,42.00
2023-05-05T06:05:43.114Z,43.41
2023-05-05T06:08:11.087Z,44.51
2023-05-05T06:10:37.946Z,44.96
2023-05-05T06:13:04.796Z,45.10
2023-05-05T06:15:31.731Z,48.41
2023-05-05T06:17:58.545Z,48.53
2023-05-05T06:20:25.468Z,50.58
2023-05-05T06:22:52.333Z,52.85
2023-05-05T06:25:19.187Z,51.59
2023-05-05T06:27:47.274Z,51.00
2023-05-05T06:30:15.013Z,51.96
2023-05-05T06:32:42.079Z,51.81
2023-05-05T06:35:09.822Z,54.53
2023-05-05T06:37:36.736Z,57.67
2023-05-05T06:40:03.858Z,57.50
2023-05-05T06:42:33.062Z,57.64
2023-05-05T06:44:59.936Z,57.28
2023-05-05T06:47:26.813Z,56.39
2023-05-05T06:49:53.971Z,62.06
2023-05-05T06:52:20.882Z,58.26
2023-05-05T06:54:47.680Z,61.55
2023-05-05T06:57:14.763Z,60.30
2023-05-05T06:59:41.846Z,59.28
2023-05-05T07:02:08.671Z,60.14
2023-05-05T07:04:35.817Z,58.45
2023-05-05T07:07:02.720Z,59.00
2023-05-05T07:09:29.617Z,58.28
2023-05-05T07:11:56.500Z,59.00
2023-05-05T07:14:24.469Z,55.82
2023-05-05T07:16:51.643Z,56.89
2023-05-05T07:19:18.562Z,56.86
2023-05-05T07:21:45.433Z,57.80
2023-05-05T07:24:12.304Z,62.47
2023-05-05T07:26:39.168Z,59.22
2023-05-05T07:29:07.305Z,59.04
2023-05-05T07:31:34.332Z,60.02
2023-05-05T07:34:01.461Z,61.68
2023-05-05T07:36:28.587Z,56.45
2023-05-05T07:38:55.629Z,54.84
2023-05-05T07:41:22.541Z,56.70
2023-05-05T07:43:49.454Z,53.71
2023-05-05T07:46:17.695Z,55.14
2023-05-05T07:48:44.624Z,52.69
2023-05-05T07:51:11.470Z,51.53
2023-05-05T07:53:38.331Z,54.26
2023-05-05T07:56:05.253Z,52.95
2023-05-05T07:58:32.134Z,53.92
2023-05-05T08:00:59.622Z,54.14
2023-05-05T08:03:26.785Z,51.53
2023-05-05T08:05:55.666Z,49.15
2023-05-05T08:08:27.112Z,49.24
2023-05-05T08:10:54.814Z,46.31
2023-05-05T08:13:21.868Z,49.71
2023-05-05T08:15:48.776Z,49.23
2023-05-05T08:18:15.592Z,49.16
2023-05-05T08:20:42.592Z,50.12
2023-05-05T08:23:09.517Z,49.91
2023-05-05T08:25:36.519Z,47.00
2023-05-05T08:28:03.824Z,48.87
2023-05-05T08:30:30.912Z,46.42
2023-05-05T08:32:58.062Z,46.21
2023-05-05T08:35:24.962Z,47.57
2023-05-05T08:37:52.093Z,43.56
2023-05-05T08:40:21.371Z,44.47
2023-05-05T08:42:48.618Z,43.39
2023-05-05T08:45:16.202Z,46.94
2023-05-05T08:47:43.678Z,45.20
2023-05-05T08:50:11.709Z,44.90
2023-05-05T08:52:45.972Z,40.66
2023-05-05T08:55:26.779Z,35.85
2023-05-05T08:57:57.531Z,34.97
2023-05-05T09:00:27.312Z,34.74
2023-05-05T09:02:57.827Z,35.94
2023-05-05T09:05:25.883Z,38.05
2023-05-05T09:07:52.958Z,37.76
2023-05-05T09:10:19.951Z,35.50
2023-05-05T09:12:47.035Z,35.91
2023-05-05T09:15:15.391Z,34.08
2023-05-05T09:17:42.868Z,32.25
2023-05-05T09:20:11.993Z,33.80
2023-05-05T09:22:40.744Z,31.07
2023-05-05T09:25:10.404Z,30.91
2023-05-05T09:27:48.859Z,30.65
2023-05-05T09:30:18.118Z,31.68
2023-05-05T09:32:49.290Z,29.94
2023-05-05T09:35:17.206Z,29.97
2023-05-05T09:37:44.737Z,28.59
2023-05-05T09:40:14.263Z,28.38
2023-05-05T09:42:41.760Z,27.80
2023-05-05T09:45:18.091Z,27.20
2023-05-05T09:47:49.456Z,26.52
2023-05-05T09:50:19.163Z,26.44
2023-05-05T09:53:00.883Z,26.26
2023-05-05T09:55:28.387Z,25.24
2023-05-05T09:57:56.453Z,27.63
2023-05-05T10:00:39.073Z,28.63
2023-05-05T10:03:06.053Z,28.05
2023-05-05T10:05:32.979Z,27.92
2023-05-05T10:08:13.461Z,26.71
2023-05-05T10:10:51.684Z,30.39
2023-05-05T10:13:21.203Z,27.03
2023-05-05T10:15:52.260Z,26.18
2023-05-05T10:18:27.856Z,24.54
2023-05-05T10:21:03.386Z,26.80
2023-05-05T10:23:46.132Z,29.83
2023-05-05T10:26:15.084Z,27.69
2023-05-05T10:28:55.278Z,26.09
2023-05-05T10:31:30.328Z,27.10
2023-05-05T10:34:10.822Z,28.26
2023-05-05T10:36:39.507Z,29.88
2023-05-05T10:39:11.000Z,30.42
2023-05-05T10:41:38.499Z,28.89
2023-05-05T10:44:07.003Z,26.74
2023-05-05T10:46:33.964Z,26.04
2023-05-05T10:49:33.716Z,28.38
2023-05-05T10:52:19.462Z,27.92
2023-05-05T10:54:55.904Z,27.75
2023-05-05T10:57:25.972Z,28.88
2023-05-05T10:59:52.888Z,26.77
2023-05-05T11:02:29.708Z,25.93
2023-05-05T11:05:08.471Z,26.02
2023-05-05T11:07:36.177Z,25.59
2023-05-05T11:10:07.858Z,29.26
2023-05-05T11:13:02.234Z,25.28
2023-05-05T11:15:31.469Z,23.87
2023-05-05T11:18:05.808Z,26.32
2023-05-05T11:20:37.323Z,25.97
2023-05-05T11:23:04.364Z,26.51
2023-05-05T11:25:41.273Z,26.85
2023-05-05T11:28:13.065Z,25.61
2023-05-05T11:30:55.135Z,24.75
2023-05-05T11:33:32.322Z,26.46
2023-05-05T11:36:05.764Z,24.80
2023-05-05T11:38:36.457Z,25.74
2023-05-05T11:41:12.055Z,28.42
2023-05-05T11:43:41.969Z,27.34
2023-05-05T11:46:17.114Z,26.19
2023-05-05T11:48:47.301Z,25.62
2023-05-05T11:51:18.706Z,26.82
2023-05-05T11:53:49.978Z,26.26
2023-05-05T11:56:19.453Z,27.35
2023-05-05T11:58:47.450Z,27.52
2023-05-05T12:01:14.932Z,31.00
2023-05-05T12:03:43.213Z,32.98
2023-05-05T12:06:10.490Z,31.83
2023-05-05T12:08:41.396Z,33.63
2023-05-05T12:11:11.444Z,32.59
2023-05-05T12:13:38.495Z,31.08
2023-05-05T12:16:09.833Z,32.32
2023-05-05T12:18:36.853Z,32.61
2023-05-05T12:21:15.840Z,31.42
2023-05-05T12:23:43.070Z,31.03
2023-05-05T12:26:30.243Z,31.24
2023-05-05T12:29:01.214Z,31.54
2023-05-05T12:31:38.984Z,32.13
2023-05-05T12:34:08.706Z,34.19
2023-05-05T12:36:39.983Z,34.12
2023-05-05T12:39:06.896Z,31.52
2023-05-05T12:41:34.075Z,29.53
2023-05-05T12:44:03.265Z,30.35
2023-05-05T12:46:31.302Z,30.98
2023-05-05T12:49:08.134Z,31.75
2023-05-05T12:51:36.411Z,31.15
2023-05-05T12:54:10.442Z,28.92
2023-05-05T12:56:44.831Z,28.92
2023-05-05T12:59:29.036Z,28.48
2023-05-05T13:01:57.720Z,25.84
2023-05-05T13:04:28.371Z,25.69
2023-05-05T13:07:14.641Z,26.82
2023-05-05T13:09:41.916Z,26.52
2023-05-05T13:12:11.729Z,27.32
2023-05-05T13:14:39.936Z,27.07
2023-05-05T13:17:06.978Z,27.33
2023-05-05T13:19:36.065Z,28.00
2023-05-05T13:22:03.408Z,33.01
2023-05-05T13:24:46.680Z,30.47
2023-05-05T13:27:17.422Z,29.90
2023-05-05T13:29:45.338Z,30.20
2023-05-05T13:32:12.226Z,31.18
2023-05-05T13:34:39.581Z,31.15
2023-05-05T13:37:06.727Z,29.60
2023-05-05T13:39:33.649Z,26.36
2023-05-05T13:42:00.684Z,28.97
2023-05-05T13:44:27.643Z,29.09
2023-05-05T13:46:54.757Z,27.67
2023-05-05T13:49:21.902Z,29.74
2023-05-05T13:51:48.824Z,29.96
2023-05-05T13:54:15.703Z,28.53
2023-05-05T13:56:42.744Z,30.12
2023-05-05T13:59:09.740Z,29.86
2023-05-05T14:01:36.696Z,29.25
2023-05-05T14:04:05.466Z,29.38
2023-05-05T14:06:32.761Z,27.89
2023-05-05T14:08:59.897Z,29.26
2023-05-05T14:11:26.723Z,28.24
2023-05-05T14:13:53.613Z,28.98
2023-05-05T14:16:20.499Z,32.26
2023-05-05T14:18:47.360Z,32.84
2023-05-05T14:21:14.251Z,32.46
2023-05-05T14:23:41.258Z,33.24
2023-05-05T14:26:09.258Z,32.74
2023-05-05T14:28:36.402Z,36.59
2023-05-05T14:31:03.359Z,35.56
2023-05-05T14:33:30.282Z,34.77
2023-05-05T14:35:57.191Z,33.81
2023-05-05T14:38:24.059Z,31.92
2023-05-05T14:40:50.960Z,33.34
2023-05-05T14:43:17.791Z,31.96
2023-05-05T14:45:44.636Z,32.56
2023-05-05T14:48:11.568Z,33.29
2023-05-05T14:50:40.059Z,31.37
2023-05-05T14:53:06.857Z,34.14
2023-05-05T14:55:33.737Z,30.89
2023-05-05T14:58:00.570Z,30.60
2023-05-05T15:00:27.442Z,29.56
2023-05-05T15:02:54.304Z,30.40
2023-05-05T15:05:21.480Z,30.62
2023-05-05T15:07:48.418Z,32.80
2023-05-05T15:10:15.355Z,32.72
2023-05-05T15:12:43.048Z,32.04
2023-05-05T15:15:10.530Z,29.66
2023-05-05T15:17:39.067Z,29.99
2023-05-05T15:20:07.001Z,30.36
2023-05-05T15:22:34.075Z,30.90
2023-05-05T15:25:01.550Z,32.35
2023-05-05T15:27:28.666Z,33.24
2023-05-05T15:29:55.620Z,35.11
2023-05-05T15:32:22.822Z,34.81
2023-05-05T15:34:50.474Z,34.50
2023-05-05T15:37:17.583Z,34.64
2023-05-05T15:39:44.616Z,35.46
2023-05-05T15:42:11.540Z,36.32
2023-05-05T15:44:38.636Z,38.02
2023-05-05T15:47:06.763Z,38.52
2023-05-05T15:49:33.695Z,37.47
2023-05-05T15:52:00.913Z,37.62
2023-05-05T15:54:27.813Z,36.93
2023-05-05T15:56:55.181Z,38.11
2023-05-05T15:59:22.127Z,38.03
2023-05-05T16:01:49.292Z,37.79
2023-05-05T16:04:16.181Z,39.39
2023-05-05T16:06:43.165Z,38.80
2023-05-05T16:09:10.351Z,39.04
2023-05-05T16:11:39.849Z,40.21
2023-05-05T16:14:06.559Z,42.13
2023-05-05T16:16:33.472Z,40.23
2023-05-05T16:19:00.332Z,39.29
2023-05-05T16:21:27.722Z,39.50
2023-05-05T16:23:54.594Z,39.09
2023-05-05T16:26:21.468Z,39.69
2023-05-05T16:28:48.778Z,39.07
2023-05-05T16:31:15.641Z,39.59
2023-05-05T16:33:44.143Z,39.69
2023-05-05T16:36:14.669Z,41.60
2023-05-05T16:38:41.700Z,41.52
2023-05-05T16:41:08.678Z,41.83
2023-05-05T16:43:37.392Z,42.42
2023-05-05T16:46:04.906Z,39.80
2023-05-05T16:48:31.973Z,39.10
2023-05-05T16:50:59.032Z,41.47
2023-05-05T16:53:26.175Z,40.78
2023-05-05T16:55:53.761Z,41.23
2023-05-05T16:58:21.455Z,40.47
2023-05-05T17:00:49.387Z,41.82
2023-05-05T17:03:17.298Z,45.10
2023-05-05T17:05:45.285Z,43.07
2023-05-05T17:08:14.481Z,43.64
2023-05-05T17:10:42.406Z,43.69
2023-05-05T17:13:13.711Z,43.14
2023-05-05T17:15:41.607Z,42.30
2023-05-05T17:18:09.019Z,43.57
2023-05-05T17:20:36.552Z,44.06
2023-05-05T17:23:03.600Z,43.61
2023-05-05T17:25:30.937Z,44.12
2023-05-05T17:27:57.902Z,44.28
2023-05-05T17:30:24.768Z,44.99
2023-05-05T17:32:51.632Z,44.24
2023-05-05T17:35:18.733Z,44.51
2023-05-05T17:37:45.788Z,44.66
2023-05-05T17:40:12.773Z,44.52
2023-05-05T17:42:39.720Z,45.01
2023-05-05T17:45:07.933Z,44.67
2023-05-05T17:47:35.263Z,44.93
2023-05-05T17:50:02.328Z,45.68
2023-05-05T17:52:29.369Z,45.17
2023-05-05T17:54:56.170Z,45.64
2023-05-05T17:57:23.161Z,46.94
2023-05-05T17:59:50.615Z,47.74
2023-05-05T18:02:18.207Z,47.93
2023-05-05T18:04:45.728Z,48.59
2023-05-05T18:07:14.833Z,48.26
2023-05-05T18:09:42.311Z,48.71
2023-05-05T18:12:09.239Z,48.78
2023-05-05T18:14:36.178Z,49.38
2023-05-05T18:17:03.349Z,49.16
2023-05-05T18:19:30.351Z,49.18
2023-05-05T18:21:59.890Z,49.02
2023-05-05T18:24:27.630Z,49.02
2023-05-05T18:26:54.476Z,49.61
2023-05-05T18:29:22.285Z,50.06
2023-05-05T18:31:53.148Z,50.09
2023-05-05T18:34:20.885Z,49.90
2023-05-05T18:36:48.376Z,50.21
2023-05-05T18:39:15.295Z,50.33
2023-05-05T18:41:42.209Z,50.28
2023-05-05T18:44:09.159Z,50.63
2023-05-05T18:46:36.087Z,48.78
2023-05-05T18:49:03.903Z,48.12
2023-05-05T18:51:30.976Z,48.26
2023-05-05T18:53:58.046Z,49.44
2023-05-05T18:56:24.883Z,48.52
2023-05-05T18:58:51.760Z,49.13
2023-05-05T19:01:18.731Z,50.02
2023-05-05T19:03:48.912Z,51.08
2023-05-05T19:06:16.512Z,49.80
2023-05-05T19:08:44.383Z,50.35
2023-05-05T19:11:11.503Z,50.97
2023-05-05T19:13:39.748Z,51.59
2023-05-05T19:16:07.345Z,50.13
2023-05-05T19:18:34.468Z,50.28
2023-05-05T19:21:01.706Z,48.62
2023-05-05T19:23:28.552Z,49.68
2023-05-05T19:25:55.565Z,51.45
2023-05-05T19:28:22.434Z,51.68
2023-05-05T19:30:49.408Z,51.45
2023-05-05T19:33:16.619Z,52.90
2023-05-05T19:35:44.155Z,51.39
2023-05-05T19:38:11.145Z,50.59
2023-05-05T19:40:41.301Z,51.89
2023-05-05T19:43:08.305Z,53.61
2023-05-05T19:45:35.650Z,53.20
2023-05-05T19:48:03.011Z,51.90
2023-05-05T19:50:30.869Z,56.18
2023-05-05T19:52:58.232Z,55.06
2023-05-05T19:55:25.876Z,54.28
2023-05-05T19:57:52.773Z,52.49
2023-05-05T20:00:19.957Z,52.09
2023-05-05T20:02:48.757Z,55.54
2023-05-05T20:05:17.811Z,54.88
2023-05-05T20:07:47.011Z,55.92
2023-05-05T20:10:14.005Z,55.82
2023-05-05T20:12:49.205Z,56.67
2023-05-05T20:15:19.988Z,57.30
2023-05-05T20:17:48.033Z,57.08
2023-05-05T20:20:20.865Z,56.24
2023-05-05T20:22:48.648Z,57.26
2023-05-05T20:25:18.559Z,54.75
2023-05-05T20:27:48.188Z,55.41
2023-05-05T20:30:15.149Z,56.40
2023-05-05T20:32:42.147Z,56.83
2023-05-05T20:35:09.778Z,57.13
2023-05-05T20:37:36.574Z,57.86
2023-05-05T20:40:04.027Z,58.94
2023-05-05T20:42:30.917Z,58.79
2023-05-05T20:44:57.844Z,55.94
2023-05-05T20:47:24.975Z,56.94
2023-05-05T20:49:52.686Z,59.34
2023-05-05T20:52:20.171Z,60.36
2023-05-05T20:54:46.993Z,62.48
2023-05-05T20:57:13.955Z,61.65
2023-05-05T20:59:40.828Z,60.30
2023-05-05T21:02:08.328Z,59.96
2023-05-05T21:04:35.525Z,57.56
2023-05-05T21:07:03.054Z,58.66
2023-05-05T21:09:29.916Z,58.25
2023-05-05T21:11:56.822Z,62.56
2023-05-05T21:14:23.988Z,60.13
2023-05-05T21:16:50.902Z,58.45
2023-05-05T21:19:17.771Z,61.12
2023-05-05T21:21:44.590Z,61.19
2023-05-05T21:24:13.159Z,60.42
2023-05-05T21:26:44.376Z,58.92
2023-05-05T21:29:11.847Z,60.45
2023-05-05T21:31:38.752Z,62.35
2023-05-05T21:34:05.619Z,63.05
2023-05-05T21:36:34.088Z,62.00
2023-05-05T21:39:01.267Z,62.52
2023-05-05T21:41:28.165Z,62.49
2023-05-05T21:43:55.129Z,61.89
2023-05-05T21:46:22.089Z,62.38
2023-05-05T21:48:49.013Z,62.25
2023-05-05T21:51:15.996Z,62.33
2023-05-05T21:53:42.922Z,62.00
2023-05-05T21:56:09.899Z,62.28
2023-05-05T21:58:36.811Z,62.76
2023-05-05T22:01:03.800Z,62.35
2023-05-05T22:03:30.764Z,61.91
2023-05-05T22:05:57.641Z,62.73
2023-05-05T22:08:24.547Z,60.23
2023-05-05T22:10:51.651Z,60.63
2023-05-05T22:13:18.613Z,61.49
2023-05-05T22:15:47.480Z,60.40
2023-05-05T22:18:15.557Z,62.23
2023-05-05T22:20:42.512Z,61.87
2023-05-05T22:23:09.570Z,62.31
2023-05-05T22:25:36.484Z,62.52
2023-05-05T22:28:03.506Z,64.25
2023-05-05T22:30:30.417Z,66.15
2023-05-05T22:32:57.405Z,67.12
2023-05-05T22:35:24.555Z,66.84
2023-05-05T22:37:51.387Z,70.06
2023-05-05T22:40:18.236Z,66.89
2023-05-05T22:42:45.077Z,64.09
2023-05-05T22:45:12.168Z,65.44
2023-05-05T22:47:39.723Z,65.54
2023-05-05T22:50:07.953Z,62.72
2023-05-05T22:52:34.832Z,63.83
2023-05-05T22:55:01.910Z,62.13
2023-05-05T22:57:28.801Z,62.15
2023-05-05T22:59:55.874Z,62.12
2023-05-05T23:02:22.876Z,62.66
2023-05-05T23:04:50.011Z,63.29
2023-05-05T23:07:16.931Z,63.33
2023-05-05T23:09:43.736Z,67.74
2023-05-05T23:12:10.956Z,68.12
2023-05-05T23:14:38.450Z,65.51
2023-05-05T23:17:05.471Z,65.09
2023-05-05T23:19:32.801Z,63.04
2023-05-05T23:22:00.267Z,64.61
2023-05-05T23:24:28.387Z,63.20
2023-05-05T23:26:57.052Z,62.95
2023-05-05T23:29:23.876Z,63.15
2023-05-05T23:31:50.827Z,64.39
2023-05-05T23:34:17.603Z,64.24
2023-05-05T23:36:44.409Z,66.34
2023-05-05T23:39:11.610Z,64.36
2023-05-05T23:41:38.494Z,67.12
2023-05-05T23:44:05.414Z,65.32
2023-05-05T23:46:32.647Z,66.10
2023-05-05T23:48:59.560Z,64.29
2023-05-05T23:51:27.408Z,65.34
2023-05-05T23:53:57.388Z,63.86
2023-05-05T23:56:24.685Z,64.02
2023-05-05T23:58:52.692Z,64.39
